Time;durP1;ratioP1;P1;durP2;ratioP2;P2;SDS_P1;SDS_P2;PMS_P1;PMS_P2;Temp;Humidity;BMP_temperature;BMP_pressure;BME280_temperature;BME280_humidity;BME280_pressure;Samples;Min_cycle;Max_cycle;Signal;HPM_P1;HPM_P2
2024/01/04 00:01:14;;;;;;;0.20;0.20;;;10.30;99.90;;;;;;7404601;19;20150;-75
2024/01/04 00:03:40;;;;;;;0.20;0.20;;;10.30;99.90;;;;;;7403271;19;20154;-75
2024/01/04 00:06:06;;;;;;;0.40;0.30;;;10.20;99.90;;;;;;7402166;19;20170;-76
2024/01/04 00:08:32;;;;;;;0.30;0.30;;;10.30;99.90;;;;;;7399378;19;20167;-76
2024/01/04 00:10:58;;;;;;;0.30;0.30;;;10.20;99.90;;;;;;7403458;19;20134;-75
2024/01/04 00:13:24;;;;;;;0.13;0.13;;;10.10;99.90;;;;;;7405048;19;20142;-76
2024/01/04 00:15:50;;;;;;;0.30;0.30;;;10.20;99.90;;;;;;7404017;19;20126;-76
2024/01/04 00:18:16;;;;;;;0.40;0.40;;;10.00;99.90;;;;;;7402117;19;20138;-76
2024/01/04 00:20:42;;;;;;;0.20;0.20;;;10.00;99.90;;;;;;7401315;19;20143;-77
2024/01/04 00:23:08;;;;;;;0.20;0.20;;;10.10;99.90;;;;;;7404093;19;20147;-76
2024/01/04 00:25:34;;;;;;;0.20;0.20;;;10.20;99.90;;;;;;7402887;19;20130;-76
2024/01/04 00:28:00;;;;;;;0.80;0.47;;;10.30;99.90;;;;;;7403086;19;20143;-76
2024/01/04 00:30:26;;;;;;;0.30;0.30;;;10.20;99.90;;;;;;7394785;19;20135;-76
2024/01/04 00:32:52;;;;;;;1.03;0.50;;;10.20;99.90;;;;;;7397746;19;20592;-76
2024/01/04 00:35:17;;;;;;;0.20;0.20;;;10.30;99.90;;;;;;7393774;19;20153;-77
2024/01/04 00:37:43;;;;;;;0.50;0.40;;;10.10;99.90;;;;;;7396200;19;20139;-76
2024/01/04 00:40:09;;;;;;;0.20;0.20;;;10.20;99.90;;;;;;7395434;19;20146;-76
2024/01/04 00:42:38;;;;;;;0.20;0.20;;;10.30;99.90;;;;;;7396732;19;20155;-76
2024/01/04 00:45:05;;;;;;;0.40;0.30;;;10.30;99.90;;;;;;7395078;19;20218;-77
2024/01/04 00:47:31;;;;;;;2.57;0.33;;;10.20;99.90;;;;;;7395294;19;20147;-76
2024/01/04 00:49:57;;;;;;;0.20;0.20;;;10.20;99.90;;;;;;7396243;19;20135;-77
2024/01/04 00:52:23;;;;;;;0.20;0.20;;;10.20;99.90;;;;;;7394130;19;20134;-76
2024/01/04 00:54:50;;;;;;;0.47;0.30;;;10.20;99.90;;;;;;7397053;19;20161;-76
2024/01/04 00:57:15;;;;;;;0.30;0.30;;;9.90;99.90;;;;;;7394353;19;20230;-77
2024/01/04 00:59:41;;;;;;;0.20;0.20;;;9.90;99.90;;;;;;7394342;19;20142;-75
2024/01/04 01:02:07;;;;;;;0.20;0.20;;;9.90;99.90;;;;;;7396110;19;20139;-77
2024/01/04 01:04:33;;;;;;;0.73;0.50;;;10.10;99.90;;;;;;7392667;19;20189;-75
2024/01/04 01:06:58;;;;;;;0.40;0.40;;;10.10;99.90;;;;;;7395731;19;20572;-76
2024/01/04 01:09:24;;;;;;;0.20;0.20;;;10.20;99.90;;;;;;7392540;19;20493;-76
2024/01/04 01:11:50;;;;;;;0.90;0.40;;;10.10;99.90;;;;;;7389682;19;20139;-77
2024/01/04 01:14:16;;;;;;;0.30;0.30;;;10.10;99.90;;;;;;7397470;19;20134;-76
2024/01/04 01:16:41;;;;;;;1.90;0.30;;;10.00;99.90;;;;;;7392099;19;20158;-76
2024/01/04 01:19:08;;;;;;;0.20;0.20;;;10.00;99.90;;;;;;7393588;19;20150;-76
2024/01/04 01:21:34;;;;;;;0.20;0.20;;;10.00;99.90;;;;;;7390914;19;20205;-76
2024/01/04 01:23:59;;;;;;;0.30;0.30;;;10.10;99.90;;;;;;7392704;19;20135;-74
2024/01/04 01:26:25;;;;;;;0.30;0.30;;;10.10;99.90;;;;;;7393532;19;20138;-76
2024/01/04 01:28:51;;;;;;;0.30;0.30;;;10.10;99.90;;;;;;7392362;19;20197;-76
2024/01/04 01:31:17;;;;;;;0.20;0.20;;;10.10;99.90;;;;;;7393630;19;20131;-77
2024/01/04 01:33:44;;;;;;;0.30;0.20;;;10.00;99.90;;;;;;7394059;19;20139;-76
2024/01/04 01:36:10;;;;;;;0.43;0.40;;;9.90;99.90;;;;;;7392468;19;20139;-76
2024/01/04 01:38:36;;;;;;;0.73;0.30;;;9.90;99.90;;;;;;7393475;19;20150;-76
2024/01/04 01:41:01;;;;;;;0.13;0.13;;;9.90;99.90;;;;;;7391961;19;20600;-75
2024/01/04 01:43:27;;;;;;;0.20;0.20;;;9.90;99.90;;;;;;7393376;19;20141;-75
2024/01/04 01:45:53;;;;;;;0.20;0.20;;;9.80;99.90;;;;;;7395273;19;20130;-75
2024/01/04 01:48:19;;;;;;;0.30;0.30;;;9.60;99.90;;;;;;7390537;19;20139;-74
2024/01/04 01:50:45;;;;;;;0.37;0.37;;;9.60;99.90;;;;;;7392159;19;20151;-75
2024/01/04 01:53:11;;;;;;;0.50;0.40;;;9.40;99.90;;;;;;7393018;19;20147;-75
2024/01/04 01:55:37;;;;;;;0.10;0.10;;;9.40;99.90;;;;;;7395071;19;20134;-74
2024/01/04 01:58:04;;;;;;;0.30;0.30;;;9.50;99.90;;;;;;7393332;19;20131;-75
2024/01/04 02:00:31;;;;;;;0.47;0.30;;;9.40;99.90;;;;;;7390875;19;20596;-75
2024/01/04 02:02:57;;;;;;;2.00;0.70;;;9.60;99.90;;;;;;7392708;19;20157;-76
2024/01/04 02:05:22;;;;;;;0.83;0.30;;;9.40;99.90;;;;;;7389641;19;20190;-75
2024/01/04 02:07:49;;;;;;;0.23;0.13;;;9.30;99.90;;;;;;7390912;19;20588;-76
2024/01/04 02:10:14;;;;;;;0.20;0.20;;;9.10;99.90;;;;;;7390923;19;20150;-74
2024/01/04 02:12:40;;;;;;;0.23;0.23;;;9.00;99.90;;;;;;7393088;19;20143;-75
2024/01/04 02:15:07;;;;;;;0.23;0.23;;;9.10;99.90;;;;;;7391988;19;20134;-74
2024/01/04 02:17:34;;;;;;;0.20;0.20;;;9.00;99.90;;;;;;7394292;19;20477;-75
2024/01/04 02:20:00;;;;;;;0.30;0.30;;;9.10;99.90;;;;;;7393538;19;20600;-75
2024/01/04 02:22:25;;;;;;;0.10;0.10;;;9.20;99.90;;;;;;7391629;19;20146;-76
2024/01/04 02:24:51;;;;;;;0.10;0.10;;;9.20;99.90;;;;;;7391403;19;20151;-75
2024/01/04 02:27:17;;;;;;;0.33;0.20;;;9.30;99.90;;;;;;7391706;19;20902;-74
2024/01/04 02:29:43;;;;;;;0.20;0.20;;;9.20;99.90;;;;;;7392474;19;20134;-76
2024/01/04 02:32:09;;;;;;;0.20;0.20;;;9.10;99.90;;;;;;7394228;19;20628;-76
2024/01/04 02:34:35;;;;;;;0.10;0.10;;;9.20;99.90;;;;;;7393090;19;20181;-75
2024/01/04 02:37:00;;;;;;;0.20;0.20;;;9.30;99.90;;;;;;7391810;19;20126;-74
2024/01/04 02:39:26;;;;;;;0.20;0.20;;;9.30;99.90;;;;;;7390764;19;20163;-74
2024/01/04 02:41:52;;;;;;;0.20;0.20;;;9.30;99.90;;;;;;7391714;19;20584;-74
2024/01/04 02:44:18;;;;;;;0.37;0.37;;;9.30;99.90;;;;;;7390718;19;20163;-74
2024/01/04 02:46:43;;;;;;;0.20;0.20;;;9.30;99.90;;;;;;7393442;19;20139;-75
2024/01/04 02:49:09;;;;;;;0.20;0.20;;;9.20;99.90;;;;;;7387090;19;20225;-75
2024/01/04 02:51:35;;;;;;;0.10;0.10;;;9.20;99.90;;;;;;7392472;19;20144;-75
2024/01/04 02:54:01;;;;;;;0.20;0.20;;;9.30;99.90;;;;;;7388785;19;20144;-75
2024/01/04 02:56:26;;;;;;;0.13;0.13;;;9.20;99.90;;;;;;7393106;19;20122;-75
2024/01/04 02:58:52;;;;;;;0.10;0.10;;;9.10;99.90;;;;;;7388981;19;20162;-75
2024/01/04 03:01:22;;;;;;;0.10;0.10;;;9.20;99.90;;;;;;7391609;19;20143;-75
2024/01/04 03:03:52;;;;;;;0.20;0.20;;;9.10;99.90;;;;;;7388759;19;20214;-75
2024/01/04 03:06:25;;;;;;;0.40;0.20;;;9.20;99.90;;;;;;7389178;19;20174;-75
2024/01/04 03:08:51;;;;;;;0.10;0.10;;;9.20;99.90;;;;;;7388126;19;20171;-74
2024/01/04 03:11:18;;;;;;;0.13;0.13;;;9.30;99.90;;;;;;7391141;19;20122;-74
2024/01/04 03:13:46;;;;;;;0.10;0.10;;;9.10;99.90;;;;;;7390916;19;20231;-74
2024/01/04 03:16:12;;;;;;;0.20;0.20;;;9.10;99.90;;;;;;7391612;19;20131;-75
2024/01/04 03:18:38;;;;;;;0.10;0.10;;;9.20;99.90;;;;;;7388078;19;20410;-75
2024/01/04 03:21:08;;;;;;;0.13;0.13;;;9.10;99.90;;;;;;7389768;19;20130;-75
2024/01/04 03:23:34;;;;;;;0.10;0.10;;;9.20;99.90;;;;;;7392523;19;20130;-74
2024/01/04 03:26:00;;;;;;;0.30;0.30;;;9.40;99.90;;;;;;7390374;19;20512;-75
2024/01/04 03:28:26;;;;;;;0.10;0.10;;;9.40;99.90;;;;;;7389631;19;20126;-75
2024/01/04 03:30:51;;;;;;;0.10;0.10;;;9.40;99.90;;;;;;7383962;19;20150;-75
2024/01/04 03:33:17;;;;;;;0.10;0.10;;;9.30;99.90;;;;;;7389196;19;20138;-75
2024/01/04 03:35:43;;;;;;;0.10;0.10;;;9.10;99.90;;;;;;7389521;19;20488;-74
2024/01/04 03:38:09;;;;;;;0.10;0.10;;;9.20;99.90;;;;;;7387077;19;20142;-76
2024/01/04 03:40:34;;;;;;;0.20;0.20;;;9.30;99.90;;;;;;7391062;19;20127;-75
2024/01/04 03:43:02;;;;;;;0.27;0.27;;;9.30;99.90;;;;;;7388554;19;20130;-75
2024/01/04 03:45:28;;;;;;;0.20;0.20;;;9.40;99.90;;;;;;7390978;19;20138;-74
2024/01/04 03:47:54;;;;;;;0.10;0.10;;;9.40;99.90;;;;;;7390419;19;20493;-74
2024/01/04 03:50:19;;;;;;;0.20;0.20;;;9.30;99.90;;;;;;7386969;19;20147;-74
2024/01/04 03:52:45;;;;;;;0.20;0.20;;;9.30;99.90;;;;;;7388789;19;20146;-74
2024/01/04 03:55:11;;;;;;;0.20;0.20;;;9.30;99.90;;;;;;7389765;19;20134;-74
2024/01/04 03:57:37;;;;;;;0.10;0.10;;;9.10;99.90;;;;;;7389995;19;20168;-74
2024/01/04 04:00:03;;;;;;;0.10;0.10;;;9.20;99.90;;;;;;7386976;19;20590;-74
2024/01/04 04:02:29;;;;;;;0.20;0.20;;;9.20;99.90;;;;;;7388537;19;20134;-74
2024/01/04 04:04:56;;;;;;;0.30;0.30;;;9.30;99.90;;;;;;7391282;19;20658;-74
2024/01/04 04:07:23;;;;;;;0.10;0.10;;;9.30;99.90;;;;;;7394855;19;20222;-74
2024/01/04 04:09:49;;;;;;;0.20;0.20;;;9.40;99.90;;;;;;7397795;19;20135;-75
2024/01/04 04:12:15;;;;;;;0.20;0.20;;;9.30;99.90;;;;;;7395003;19;20616;-74
2024/01/04 04:14:41;;;;;;;0.27;0.27;;;9.40;99.90;;;;;;7397149;19;20142;-74
2024/01/04 04:17:07;;;;;;;0.40;0.40;;;9.20;99.90;;;;;;7396074;19;20153;-75
2024/01/04 04:19:33;;;;;;;0.27;0.23;;;9.20;99.90;;;;;;7394953;19;20150;-73
2024/01/04 04:21:59;;;;;;;0.20;0.20;;;9.30;99.90;;;;;;7396650;19;20133;-74
2024/01/04 04:24:24;;;;;;;0.17;0.17;;;9.40;99.90;;;;;;7395390;19;20151;-74
2024/01/04 04:26:50;;;;;;;0.10;0.10;;;9.40;99.90;;;;;;7395055;19;20158;-74
2024/01/04 04:29:16;;;;;;;0.17;0.17;;;9.50;99.90;;;;;;7395763;19;20143;-74
2024/01/04 04:31:42;;;;;;;0.20;0.20;;;9.50;99.90;;;;;;7395682;19;20926;-74
2024/01/04 04:34:07;;;;;;;0.27;0.27;;;9.60;99.90;;;;;;7395219;19;20131;-75
2024/01/04 04:36:33;;;;;;;0.20;0.20;;;9.60;99.90;;;;;;7394299;19;20126;-74
2024/01/04 04:39:02;;;;;;;0.20;0.20;;;9.50;99.90;;;;;;7395041;19;20111;-74
2024/01/04 04:41:28;;;;;;;0.30;0.30;;;9.60;99.90;;;;;;7396602;19;20875;-75
2024/01/04 04:43:54;;;;;;;0.20;0.20;;;9.70;99.90;;;;;;7397897;19;20138;-74
2024/01/04 04:46:20;;;;;;;0.20;0.20;;;9.60;99.90;;;;;;7396645;19;20599;-74
2024/01/04 04:48:46;;;;;;;0.20;0.20;;;9.50;99.90;;;;;;7392613;19;20150;-74
2024/01/04 04:51:11;;;;;;;0.20;0.20;;;9.50;99.90;;;;;;7394584;19;20165;-74
2024/01/04 04:53:37;;;;;;;0.10;0.10;;;9.70;99.90;;;;;;7394217;19;20135;-75
2024/01/04 04:56:04;;;;;;;0.30;0.30;;;9.60;99.90;;;;;;7396408;19;20146;-74
2024/01/04 04:58:31;;;;;;;0.30;0.30;;;9.60;99.90;;;;;;7393325;19;20150;-74
2024/01/04 05:00:57;;;;;;;0.20;0.20;;;9.60;99.90;;;;;;7396654;19;20135;-74
2024/01/04 05:03:22;;;;;;;0.30;0.30;;;9.70;99.90;;;;;;7394276;19;20199;-75
2024/01/04 05:05:49;;;;;;;0.50;0.50;;;9.80;99.90;;;;;;7392873;19;20150;-74
2024/01/04 05:08:16;;;;;;;0.10;0.10;;;9.80;99.90;;;;;;7391912;19;20150;-77
2024/01/04 05:10:41;;;;;;;0.20;0.20;;;9.70;99.90;;;;;;7393680;19;20137;-75
2024/01/04 05:13:07;;;;;;;0.23;0.20;;;9.70;99.90;;;;;;7392922;19;20210;-74
2024/01/04 05:15:33;;;;;;;0.30;0.30;;;9.80;99.90;;;;;;7392529;19;20139;-74
2024/01/04 05:18:00;;;;;;;0.20;0.20;;;9.70;99.90;;;;;;7394403;19;20142;-75
2024/01/04 05:20:26;;;;;;;0.20;0.20;;;9.70;99.90;;;;;;7392614;19;20138;-75
2024/01/04 05:22:51;;;;;;;0.20;0.20;;;9.50;99.90;;;;;;7395263;19;20146;-74
2024/01/04 05:25:17;;;;;;;0.10;0.10;;;9.50;99.90;;;;;;7393114;19;20170;-75
2024/01/04 05:27:43;;;;;;;0.13;0.13;;;9.50;99.90;;;;;;7395424;19;20592;-74
2024/01/04 05:30:12;;;;;;;0.10;0.10;;;9.60;99.90;;;;;;7393106;19;20146;-74
2024/01/04 05:32:38;;;;;;;0.30;0.30;;;9.60;99.90;;;;;;7395805;19;20597;-75
2024/01/04 05:35:04;;;;;;;0.20;0.20;;;9.60;99.90;;;;;;7394407;19;20138;-74
2024/01/04 05:37:30;;;;;;;0.20;0.20;;;9.70;99.90;;;;;;7391941;19;20154;-75
2024/01/04 05:39:55;;;;;;;0.10;0.10;;;9.70;99.90;;;;;;7393594;19;20134;-75
2024/01/04 05:42:21;;;;;;;0.23;0.23;;;9.60;99.90;;;;;;7394371;19;20134;-76
2024/01/04 05:44:47;;;;;;;0.40;0.40;;;9.50;99.90;;;;;;7392666;19;20138;-76
2024/01/04 05:47:12;;;;;;;0.20;0.20;;;9.60;99.90;;;;;;7392925;19;20134;-76
2024/01/04 05:49:38;;;;;;;0.30;0.30;;;9.60;99.90;;;;;;7393192;19;20146;-76
2024/01/04 05:52:04;;;;;;;0.50;0.50;;;9.70;99.90;;;;;;7391896;19;20206;-77
2024/01/04 05:54:30;;;;;;;0.10;0.10;;;9.70;99.90;;;;;;7393038;19;20135;-78
2024/01/04 05:56:56;;;;;;;0.20;0.20;;;9.60;99.90;;;;;;7393288;19;20503;-76
2024/01/04 05:59:24;;;;;;;0.20;0.20;;;9.50;99.90;;;;;;7392288;19;20126;-76
2024/01/04 06:01:51;;;;;;;0.10;0.10;;;9.70;99.90;;;;;;7393224;19;20172;-77
2024/01/04 06:04:17;;;;;;;0.17;0.17;;;9.70;99.90;;;;;;7392633;19;20147;-78
2024/01/04 06:06:43;;;;;;;0.20;0.20;;;9.70;99.90;;;;;;7390670;19;20715;-76
2024/01/04 06:09:09;;;;;;;0.20;0.20;;;9.50;99.90;;;;;;7391661;19;20139;-75
2024/01/04 06:11:38;;;;;;;0.40;0.40;;;9.60;99.90;;;;;;7390732;19;20177;-74
2024/01/04 06:14:07;;;;;;;0.30;0.20;;;9.70;99.90;;;;;;7391613;19;20152;-75
2024/01/04 06:16:33;;;;;;;0.10;0.10;;;9.60;99.90;;;;;;7391138;19;20154;-75
2024/01/04 06:18:59;;;;;;;0.20;0.20;;;9.80;99.90;;;;;;7390105;19;20497;-75
2024/01/04 06:21:25;;;;;;;0.20;0.20;;;9.80;99.90;;;;;;7391037;19;20138;-75
2024/01/04 06:23:51;;;;;;;0.10;0.10;;;9.80;99.90;;;;;;7390255;19;20160;-76
2024/01/04 06:26:18;;;;;;;0.23;0.23;;;9.90;99.90;;;;;;7393252;19;20186;-75
2024/01/04 06:28:44;;;;;;;0.27;0.27;;;9.80;99.90;;;;;;7389579;19;20188;-76
2024/01/04 06:31:10;;;;;;;0.40;0.27;;;9.80;99.90;;;;;;7387419;19;20135;-75
2024/01/04 06:33:35;;;;;;;0.30;0.30;;;9.90;99.90;;;;;;7393609;19;20155;-76
2024/01/04 06:36:02;;;;;;;0.23;0.23;;;9.70;99.90;;;;;;7387241;19;20238;-76
2024/01/04 06:38:29;;;;;;;0.60;0.53;;;9.90;99.90;;;;;;7392233;19;20146;-76
2024/01/04 06:40:58;;;;;;;0.20;0.20;;;9.80;99.90;;;;;;7391738;19;20157;-78
2024/01/04 06:43:25;;;;;;;0.77;0.40;;;9.80;99.90;;;;;;7394287;19;20170;-77
2024/01/04 06:45:51;;;;;;;0.73;0.33;;;9.80;99.90;;;;;;7391080;19;20596;-76
2024/01/04 06:48:17;;;;;;;0.27;0.20;;;9.90;99.90;;;;;;7388153;19;20213;-77
2024/01/04 06:50:44;;;;;;;0.20;0.20;;;9.90;99.90;;;;;;7391042;19;20531;-77
2024/01/04 06:53:14;;;;;;;1.93;0.40;;;9.80;99.90;;;;;;7391437;19;20138;-76
2024/01/04 06:55:40;;;;;;;0.30;0.30;;;9.90;99.90;;;;;;7391085;19;20142;-78
2024/01/04 06:58:08;;;;;;;0.53;0.37;;;9.90;99.90;;;;;;7391912;19;20498;-76
2024/01/04 07:00:34;;;;;;;0.20;0.20;;;9.90;99.90;;;;;;7391533;19;21640;-76
2024/01/04 07:02:59;;;;;;;1.17;0.50;;;9.70;99.90;;;;;;7389892;19;20138;-76
2024/01/04 07:05:25;;;;;;;0.30;0.30;;;9.80;99.90;;;;;;7386029;19;20178;-76
2024/01/04 07:07:51;;;;;;;0.40;0.40;;;10.00;99.90;;;;;;7391240;19;20489;-78
2024/01/04 07:10:17;;;;;;;0.80;0.70;;;10.10;99.90;;;;;;7390610;19;21239;-78
2024/01/04 07:12:43;;;;;;;0.77;0.40;;;10.20;99.90;;;;;;7390632;19;20135;-77
2024/01/04 07:15:12;;;;;;;2.47;0.27;;;10.10;99.90;;;;;;7389450;19;20155;-77
2024/01/04 07:17:39;;;;;;;1.13;0.40;;;10.00;99.90;;;;;;7392043;19;20154;-77
2024/01/04 07:20:06;;;;;;;0.27;0.27;;;10.00;99.90;;;;;;7389388;19;20143;-78
2024/01/04 07:22:32;;;;;;;0.40;0.40;;;9.90;99.90;;;;;;7390277;19;20119;-79
2024/01/04 07:24:58;;;;;;;0.20;0.20;;;9.80;99.90;;;;;;7392047;19;20145;-78
2024/01/04 07:27:24;;;;;;;0.20;0.20;;;9.50;99.90;;;;;;7390775;19;20150;-77
2024/01/04 07:29:50;;;;;;;0.30;0.30;;;9.40;99.90;;;;;;7391134;19;20467;-79
2024/01/04 07:32:18;;;;;;;0.20;0.20;;;9.60;99.90;;;;;;7389337;19;20138;-84
2024/01/04 07:34:45;;;;;;;2.20;0.33;;;9.70;99.90;;;;;;7391000;19;20162;-79
2024/01/04 07:37:11;;;;;;;0.20;0.20;;;9.70;99.90;;;;;;7389255;19;20491;-77
2024/01/04 07:39:37;;;;;;;0.93;0.57;;;9.60;99.90;;;;;;7393442;19;20178;-80
2024/01/04 07:42:03;;;;;;;0.30;0.30;;;9.50;99.90;;;;;;7395246;19;20135;-78
2024/01/04 07:44:29;;;;;;;0.10;0.10;;;9.60;99.90;;;;;;7398261;19;20202;-79
2024/01/04 07:46:55;;;;;;;1.27;0.43;;;9.70;99.90;;;;;;7395312;19;20150;-78
2024/01/04 07:49:21;;;;;;;0.20;0.20;;;9.70;99.90;;;;;;7393751;19;20138;-80
2024/01/04 07:51:47;;;;;;;0.17;0.17;;;9.60;99.90;;;;;;7397625;19;20127;-78
2024/01/04 07:54:12;;;;;;;0.60;0.50;;;9.40;99.90;;;;;;7398005;19;20139;-76
2024/01/04 07:56:38;;;;;;;0.20;0.20;;;9.40;99.90;;;;;;7396985;19;20138;-77
2024/01/04 07:59:04;;;;;;;0.27;0.27;;;9.40;99.90;;;;;;7397314;19;20134;-78
2024/01/04 08:01:30;;;;;;;0.27;0.27;;;9.30;99.90;;;;;;7394265;19;20122;-78
2024/01/04 08:03:56;;;;;;;0.20;0.20;;;9.20;99.90;;;;;;7394845;19;20157;-78
2024/01/04 08:06:22;;;;;;;0.30;0.30;;;9.30;99.90;;;;;;7394574;19;20158;-79
2024/01/04 08:08:47;;;;;;;0.10;0.10;;;9.30;99.90;;;;;;7394320;19;20150;-79
2024/01/04 08:11:13;;;;;;;0.30;0.30;;;9.40;99.90;;;;;;7396415;19;20142;-79
2024/01/04 08:13:39;;;;;;;0.40;0.40;;;9.20;99.90;;;;;;7396668;19;20151;-79
2024/01/04 08:16:06;;;;;;;0.10;0.10;;;9.30;99.90;;;;;;7391595;19;20150;-78
2024/01/04 08:18:32;;;;;;;0.40;0.40;;;9.20;99.90;;;;;;7397507;19;20139;-77
2024/01/04 08:20:57;;;;;;;2.87;1.13;;;9.30;99.90;;;;;;7396616;19;20138;-79
2024/01/04 08:23:23;;;;;;;0.87;0.60;;;9.50;99.90;;;;;;7397891;19;20802;-77
2024/01/04 08:25:49;;;;;;;0.20;0.20;;;9.60;99.90;;;;;;7395853;19;20146;-77
2024/01/04 08:28:15;;;;;;;0.40;0.27;;;9.40;99.90;;;;;;7393715;19;20472;-79
2024/01/04 08:30:42;;;;;;;0.37;0.30;;;9.50;99.90;;;;;;7396008;19;20635;-77
2024/01/04 08:33:08;;;;;;;0.27;0.27;;;9.60;99.90;;;;;;7394688;19;20222;-78
2024/01/04 08:35:35;;;;;;;2.00;0.50;;;9.40;99.90;;;;;;7393214;19;20162;-77
2024/01/04 08:38:01;;;;;;;0.20;0.20;;;9.40;99.90;;;;;;7393692;19;20138;-79
2024/01/04 08:40:28;;;;;;;0.27;0.20;;;9.40;99.90;;;;;;7389810;19;20907;-78
2024/01/04 08:42:54;;;;;;;0.20;0.20;;;9.60;99.90;;;;;;7394810;19;20141;-79
2024/01/04 08:45:21;;;;;;;0.90;0.60;;;9.60;99.90;;;;;;7395286;19;20138;-81
2024/01/04 08:47:47;;;;;;;0.30;0.30;;;9.70;99.90;;;;;;7394257;19;20154;-78
2024/01/04 08:50:13;;;;;;;0.20;0.20;;;9.60;99.90;;;;;;7389815;19;20149;-77
2024/01/04 08:52:38;;;;;;;0.20;0.20;;;9.50;99.90;;;;;;7394170;19;20138;-77
2024/01/04 08:55:04;;;;;;;0.77;0.27;;;9.30;99.90;;;;;;7395463;19;20139;-78
2024/01/04 08:57:32;;;;;;;0.40;0.30;;;9.60;99.90;;;;;;7394279;19;20192;-77
2024/01/04 08:59:58;;;;;;;0.20;0.20;;;9.60;99.90;;;;;;7394762;19;20219;-78
2024/01/04 09:02:23;;;;;;;0.50;0.30;;;9.70;99.90;;;;;;7396315;19;20146;-79
2024/01/04 09:04:49;;;;;;;1.90;0.93;;;9.70;99.90;;;;;;7393065;19;20174;-78
2024/01/04 09:07:15;;;;;;;0.30;0.30;;;9.90;99.90;;;;;;7394260;19;20147;-78
2024/01/04 09:09:44;;;;;;;0.20;0.20;;;10.10;99.90;;;;;;7392828;19;20154;-77
2024/01/04 09:12:10;;;;;;;0.10;0.10;;;10.20;99.90;;;;;;7394442;19;20122;-78
2024/01/04 09:14:36;;;;;;;0.30;0.30;;;10.30;99.90;;;;;;7393339;19;20131;-76
2024/01/04 09:17:02;;;;;;;0.20;0.20;;;10.10;99.90;;;;;;7394972;19;20954;-79
2024/01/04 09:19:28;;;;;;;1.20;0.40;;;10.00;99.90;;;;;;7392708;19;20202;-78
2024/01/04 09:21:53;;;;;;;0.67;0.40;;;10.10;99.90;;;;;;7395785;19;20235;-78
2024/01/04 09:24:20;;;;;;;0.27;0.27;;;10.10;99.90;;;;;;7394789;19;20141;-78
2024/01/04 09:26:46;;;;;;;0.20;0.20;;;10.20;99.90;;;;;;7393214;19;20778;-78
2024/01/04 09:29:13;;;;;;;0.10;0.10;;;10.10;99.90;;;;;;7392865;19;20135;-79
2024/01/04 09:31:40;;;;;;;0.30;0.30;;;9.90;99.90;;;;;;7394736;19;20527;-77
2024/01/04 09:34:06;;;;;;;0.37;0.37;;;9.90;99.90;;;;;;7394802;19;20138;-78
2024/01/04 09:36:32;;;;;;;0.23;0.20;;;9.90;99.90;;;;;;7393517;19;20159;-77
2024/01/04 09:38:58;;;;;;;0.30;0.30;;;10.00;99.90;;;;;;7394075;19;20499;-77
2024/01/04 09:41:31;;;;;;;0.30;0.30;;;9.90;99.90;;;;;;7393202;19;20138;-76
2024/01/04 09:44:06;;;;;;;0.20;0.20;;;9.90;99.90;;;;;;7393280;19;20146;-77
2024/01/04 09:46:38;;;;;;;1.47;0.60;;;10.10;99.90;;;;;;7393157;19;20422;-76
2024/01/04 09:49:06;;;;;;;1.57;0.30;;;10.30;99.90;;;;;;7390688;19;20142;-77
2024/01/04 09:51:39;;;;;;;0.40;0.40;;;10.20;99.90;;;;;;7391980;19;20740;-76
2024/01/04 09:54:09;;;;;;;0.10;0.10;;;10.30;99.90;;;;;;7392530;19;20154;-76
2024/01/04 09:56:43;;;;;;;0.47;0.33;;;10.20;99.90;;;;;;7391387;19;20134;-76
2024/01/04 09:59:09;;;;;;;2.05;0.50;;;10.20;99.90;;;;;;7391411;19;20145;-78
2024/01/04 10:01:38;;;;;;;0.30;0.30;;;10.20;99.90;;;;;;7389975;19;20130;-77
2024/01/04 10:04:06;;;;;;;2.07;0.60;;;10.10;99.90;;;;;;7391132;19;20194;-76
2024/01/04 10:06:39;;;;;;;0.20;0.20;;;10.30;99.90;;;;;;7389802;19;20182;-76
2024/01/04 10:09:25;;;;;;;0.87;0.40;;;10.50;99.90;;;;;;7390031;19;20153;-78
2024/01/04 10:12:02;;;;;;;0.67;0.67;;;10.70;99.90;;;;;;7391664;19;20131;-77
2024/01/04 10:14:29;;;;;;;2.63;0.40;;;10.60;99.90;;;;;;7391977;19;20146;-78
2024/01/04 10:16:56;;;;;;;0.20;0.20;;;10.70;99.90;;;;;;7391298;19;20213;-78
2024/01/04 10:19:23;;;;;;;4.90;0.67;;;10.80;99.90;;;;;;7391855;19;20126;-77
2024/01/04 10:21:49;;;;;;;1.57;0.70;;;10.90;99.90;;;;;;7392646;19;20145;-77
2024/01/04 10:24:25;;;;;;;0.37;0.37;;;10.80;99.90;;;;;;7391190;19;20146;-77
2024/01/04 10:26:59;;;;;;;1.77;0.60;;;10.80;99.90;;;;;;7392577;19;20551;-77
2024/01/04 10:29:26;;;;;;;0.43;0.43;;;10.90;99.90;;;;;;7390603;19;20145;-77
2024/01/04 10:31:59;;;;;;;0.30;0.30;;;10.80;99.90;;;;;;7390954;19;20139;-77
2024/01/04 10:34:25;;;;;;;0.20;0.20;;;10.70;99.90;;;;;;7392799;19;20168;-78
2024/01/04 10:36:52;;;;;;;0.53;0.37;;;10.80;99.90;;;;;;7389897;19;20502;-79
2024/01/04 10:39:20;;;;;;;0.87;0.40;;;10.70;99.90;;;;;;7391131;19;20598;-79
2024/01/04 10:42:01;;;;;;;1.53;0.53;;;10.70;99.90;;;;;;7391918;19;20170;-78
2024/01/04 10:44:28;;;;;;;0.47;0.47;;;10.60;99.90;;;;;;7390544;19;20167;-75
2024/01/04 10:46:57;;;;;;;0.30;0.30;;;10.70;99.90;;;;;;7391198;19;20238;-78
2024/01/04 10:49:24;;;;;;;0.40;0.40;;;10.60;99.90;;;;;;7388175;19;20150;-77
2024/01/04 10:51:57;;;;;;;0.93;0.23;;;10.50;99.90;;;;;;7391195;19;20584;-76
2024/01/04 10:54:37;;;;;;;0.20;0.20;;;10.50;99.90;;;;;;7390547;19;20154;-76
2024/01/04 10:57:03;;;;;;;0.20;0.20;;;10.50;99.90;;;;;;7391817;19;20698;-76
2024/01/04 10:59:31;;;;;;;0.23;0.23;;;10.20;99.90;;;;;;7391445;19;20177;-76
2024/01/04 11:01:57;;;;;;;0.22;0.22;;;10.10;99.90;;;;;;7391455;19;20135;-76
2024/01/04 11:04:24;;;;;;;0.20;0.20;;;10.10;99.90;;;;;;7390268;19;20143;-78
2024/01/04 11:06:52;;;;;;;0.40;0.40;;;10.10;99.90;;;;;;7389463;19;20557;-77
2024/01/04 11:09:19;;;;;;;0.17;0.17;;;10.20;99.90;;;;;;7388136;19;20138;-77
2024/01/04 11:11:45;;;;;;;0.30;0.30;;;10.30;99.90;;;;;;7389600;19;20618;-77
2024/01/04 11:14:11;;;;;;;0.20;0.20;;;10.50;99.90;;;;;;7389495;19;20151;-76
2024/01/04 11:16:58;;;;;;;0.30;0.30;;;10.50;99.90;;;;;;7388905;19;20552;-75
2024/01/04 11:19:52;;;;;;;0.20;0.20;;;10.40;99.90;;;;;;7387915;19;20150;-75
2024/01/04 11:22:18;;;;;;;0.57;0.40;;;10.40;99.90;;;;;;7389084;19;21148;-75
2024/01/04 11:25:03;;;;;;;0.27;0.20;;;10.50;99.90;;;;;;7391587;19;20149;-76
2024/01/04 11:27:31;;;;;;;2.10;1.00;;;10.60;99.90;;;;;;7391806;19;20145;-76
2024/01/04 11:29:56;;;;;;;0.60;0.60;;;10.70;99.90;;;;;;7388277;19;20189;-76
2024/01/04 11:32:24;;;;;;;0.23;0.23;;;10.80;99.90;;;;;;7388492;19;20780;-75
2024/01/04 11:34:49;;;;;;;0.20;0.20;;;11.00;99.90;;;;;;7391100;19;20560;-76
2024/01/04 11:37:20;;;;;;;0.37;0.33;;;11.20;99.90;;;;;;7389060;19;20202;-77
2024/01/04 11:40:06;;;;;;;0.20;0.20;;;11.40;99.90;;;;;;7387821;19;20194;-77
2024/01/04 11:42:32;;;;;;;0.30;0.30;;;11.10;99.90;;;;;;7389155;19;20138;-76
2024/01/04 11:45:04;;;;;;;0.30;0.30;;;11.30;99.90;;;;;;7389691;19;20150;-77
2024/01/04 11:47:38;;;;;;;0.27;0.27;;;11.30;99.90;;;;;;7391198;19;20134;-76
2024/01/04 11:50:24;;;;;;;0.20;0.20;;;11.10;99.90;;;;;;7387555;19;20134;-77
2024/01/04 11:52:50;;;;;;;0.30;0.30;;;11.00;99.90;;;;;;7389598;19;20494;-77
2024/01/04 11:55:25;;;;;;;0.30;0.30;;;10.80;99.90;;;;;;7387110;19;20130;-77
2024/01/04 11:58:14;;;;;;;0.40;0.40;;;10.70;99.90;;;;;;7389366;19;20743;-76
2024/01/04 12:00:50;;;;;;;0.30;0.30;;;10.60;99.90;;;;;;7390728;19;20147;-76
2024/01/04 12:03:17;;;;;;;0.20;0.20;;;10.60;99.90;;;;;;7388881;19;20134;-76
2024/01/04 12:05:45;;;;;;;0.47;0.47;;;10.60;99.90;;;;;;7387206;19;20531;-75
2024/01/04 12:08:25;;;;;;;0.77;0.57;;;10.70;99.90;;;;;;7387462;19;20220;-75
2024/01/04 12:10:56;;;;;;;0.20;0.20;;;10.70;99.90;;;;;;7391401;19;20138;-75
2024/01/04 12:13:23;;;;;;;0.23;0.20;;;10.70;99.90;;;;;;7386254;19;20146;-76
2024/01/04 12:15:49;;;;;;;1.30;0.57;;;10.50;99.90;;;;;;7388687;19;20150;-76
2024/01/04 12:18:18;;;;;;;0.20;0.20;;;10.70;99.90;;;;;;7387798;19;20172;-75
2024/01/04 12:20:47;;;;;;;0.40;0.30;;;10.50;99.90;;;;;;7388687;19;20146;-75
2024/01/04 12:23:15;;;;;;;0.10;0.10;;;10.80;99.90;;;;;;7388405;19;20142;-75
2024/01/04 12:25:44;;;;;;;0.80;0.50;;;11.00;99.90;;;;;;7394127;19;20140;-76
2024/01/04 12:28:13;;;;;;;1.97;0.50;;;11.20;99.90;;;;;;7395044;19;20156;-76
2024/01/04 12:30:43;;;;;;;0.20;0.20;;;11.30;99.90;;;;;;7395884;19;20159;-78
2024/01/04 12:33:11;;;;;;;0.83;0.27;;;11.20;99.90;;;;;;7395048;19;20488;-78
2024/01/04 12:35:38;;;;;;;0.30;0.27;;;11.20;99.90;;;;;;7395644;19;20182;-77
2024/01/04 12:38:06;;;;;;;0.30;0.30;;;11.20;99.90;;;;;;7394891;19;20222;-78
2024/01/04 12:40:42;;;;;;;0.50;0.50;;;11.40;99.90;;;;;;7395295;19;20285;-77
2024/01/04 12:43:10;;;;;;;0.30;0.30;;;11.40;99.90;;;;;;7396104;19;20154;-78
2024/01/04 12:45:41;;;;;;;0.20;0.20;;;11.30;99.90;;;;;;7398646;19;20589;-78
2024/01/04 12:48:07;;;;;;;0.40;0.40;;;11.70;99.90;;;;;;7396746;19;20155;-78
2024/01/04 12:50:34;;;;;;;1.23;0.47;;;11.90;99.90;;;;;;7395183;19;20206;-78
2024/01/04 12:53:02;;;;;;;1.85;0.98;;;12.00;99.90;;;;;;7396690;19;20592;-77